createdAt,value
2019-01-03T00:00:05.064Z,5.15
2019-01-03T00:00:57.643Z,5.01
2019-01-03T00:01:49.522Z,5.01
2019-01-03T00:02:41.685Z,5.05
2019-01-03T00:03:33.956Z,5.01
2019-01-03T00:04:25.944Z,5.04
2019-01-03T00:05:18.214Z,5.08
2019-01-03T00:06:10.630Z,5.11
2019-01-03T00:07:02.662Z,4.99
2019-01-03T00:07:55.036Z,5.11
2019-01-03T00:08:48.356Z,5.06
2019-01-03T00:09:40.587Z,4.94
2019-01-03T00:10:32.687Z,4.88
2019-01-03T00:11:24.955Z,4.79
2019-01-03T00:12:17.561Z,4.83
2019-01-03T00:13:09.615Z,4.74
2019-01-03T00:14:01.987Z,4.62
2019-01-03T00:14:53.403Z,4.61
2019-01-03T00:15:45.470Z,4.5
2019-01-03T00:16:37.388Z,4.61
2019-01-03T00:17:29.188Z,4.5
2019-01-03T00:18:21.047Z,4.46
2019-01-03T00:19:13.161Z,4.5
2019-01-03T00:20:05.742Z,4.38
2019-01-03T00:20:48.768Z,4.42
2019-01-03T00:21:29.264Z,4.42
2019-01-03T00:22:09.673Z,4.28
2019-01-03T00:22:50.130Z,4.26
2019-01-03T00:23:30.448Z,4.31
2019-01-03T00:24:10.884Z,4.34
2019-01-03T00:24:51.370Z,4.31
2019-01-03T00:25:31.773Z,4.36
2019-01-03T00:26:12.142Z,4.24
2019-01-03T00:26:53.759Z,4.28
2019-01-03T00:27:33.019Z,4.29
2019-01-03T00:28:13.501Z,4.35
2019-01-03T00:28:53.829Z,4.34
2019-01-03T00:29:34.170Z,4.46
2019-01-03T00:30:14.659Z,4.49
2019-01-03T00:30:54.994Z,4.56
2019-01-03T00:31:35.427Z,4.56
2019-01-03T00:32:15.871Z,4.53
2019-01-03T00:32:56.314Z,4.67
2019-01-03T00:33:36.699Z,4.5
2019-01-03T00:34:17.130Z,4.68
2019-01-03T00:34:57.535Z,4.68
2019-01-03T00:35:37.894Z,4.65
2019-01-03T00:36:18.400Z,4.61
2019-01-03T00:36:58.758Z,4.53
2019-01-03T00:37:39.217Z,4.59
2019-01-03T00:38:19.575Z,4.65
2019-01-03T00:39:00.061Z,4.68
2019-01-03T00:39:40.381Z,4.68
2019-01-03T00:40:20.770Z,4.59
2019-01-03T00:41:01.209Z,4.62
2019-01-03T00:41:41.615Z,4.67
2019-01-03T00:42:22.149Z,4.61
2019-01-03T00:43:02.615Z,4.59
2019-01-03T00:43:43.017Z,4.59
2019-01-03T00:44:23.441Z,4.65
2019-01-03T00:45:03.915Z,4.62
2019-01-03T00:45:44.281Z,4.75
2019-01-03T00:46:24.692Z,4.74
2019-01-03T00:47:05.035Z,4.8
2019-01-03T00:47:45.498Z,4.86
2019-01-03T00:48:25.940Z,4.96
2019-01-03T00:49:06.385Z,4.97
2019-01-03T00:49:46.935Z,5.04
2019-01-03T00:50:27.262Z,5.05
2019-01-03T00:51:07.618Z,5.15
2019-01-03T00:51:48.060Z,5.14
2019-01-03T00:52:28.385Z,5.17
2019-01-03T00:53:08.901Z,5.26
2019-01-03T00:53:49.203Z,5.23
2019-01-03T00:54:29.619Z,5.29
2019-01-03T00:55:10.123Z,5.35
2019-01-03T00:55:50.617Z,5.4
2019-01-03T00:56:30.985Z,5.41
2019-01-03T00:57:11.486Z,5.48
2019-01-03T00:57:51.746Z,5.63
2019-01-03T00:58:32.135Z,5.65
2019-01-03T00:59:12.562Z,5.63
2019-01-03T00:59:53.026Z,5.69
2019-01-03T01:00:33.267Z,5.7
2019-01-03T01:01:13.741Z,5.84
2019-01-03T01:01:54.122Z,6.03
2019-01-03T01:02:34.539Z,5.99
2019-01-03T01:03:14.957Z,6.05
2019-01-03T01:03:55.379Z,6.16
2019-01-03T01:04:36.052Z,6.17
2019-01-03T01:05:16.450Z,6.19
2019-01-03T01:05:56.918Z,6.13
2019-01-03T01:06:37.387Z,6.19
2019-01-03T01:07:17.890Z,6.25
2019-01-03T01:07:58.359Z,6.32
2019-01-03T01:08:39.120Z,6.28
2019-01-03T01:09:19.616Z,6.1
2019-01-03T01:09:59.999Z,6.19
2019-01-03T01:10:40.534Z,6.06
2019-01-03T01:11:20.815Z,6.02
2019-01-03T01:12:01.335Z,6.03
2019-01-03T01:12:41.754Z,6.02
2019-01-03T01:13:22.080Z,6.03
2019-01-03T01:14:02.629Z,6.08
2019-01-03T01:14:42.968Z,6.02
2019-01-03T01:15:23.410Z,6.01
2019-01-03T01:16:03.967Z,6.05
2019-01-03T01:16:44.388Z,5.98
2019-01-03T01:17:24.679Z,5.88
2019-01-03T01:18:05.105Z,5.93
2019-01-03T01:18:45.538Z,5.92
2019-01-03T01:19:26.157Z,6.01
2019-01-03T01:20:06.762Z,5.93
2019-01-03T01:20:47.353Z,5.99
2019-01-03T01:21:27.684Z,6.01
2019-01-03T01:22:08.150Z,5.92
2019-01-03T01:22:48.701Z,5.93
2019-01-03T01:23:29.167Z,5.92
2019-01-03T01:24:09.593Z,5.87
2019-01-03T01:24:49.895Z,5.87
2019-01-03T01:25:30.322Z,5.87
2019-01-03T01:26:10.848Z,5.8
2019-01-03T01:26:51.191Z,5.77
2019-01-03T01:27:31.868Z,5.8
2019-01-03T01:28:12.306Z,5.77
2019-01-03T01:28:52.898Z,5.9
2019-01-03T01:29:33.615Z,5.88
2019-01-03T01:30:14.027Z,5.85
2019-01-03T01:30:54.494Z,5.84
2019-01-03T01:31:35.056Z,5.84
2019-01-03T01:32:15.386Z,5.85
2019-01-03T01:32:55.729Z,5.9
2019-01-03T01:33:36.203Z,5.87
2019-01-03T01:34:16.604Z,5.84
2019-01-03T01:34:56.986Z,5.88
2019-01-03T01:35:37.518Z,5.92
2019-01-03T01:36:17.887Z,5.96
2019-01-03T01:36:58.351Z,5.92
2019-01-03T01:37:38.862Z,5.98
2019-01-03T01:38:19.321Z,5.85
2019-01-03T01:38:59.730Z,5.9
2019-01-03T01:39:40.079Z,5.93
2019-01-03T01:40:20.539Z,5.95
2019-01-03T01:41:00.897Z,5.99
2019-01-03T01:41:41.267Z,6.02
2019-01-03T01:42:21.687Z,6.08
2019-01-03T01:43:02.118Z,5.99
2019-01-03T01:43:42.493Z,6.13
2019-01-03T01:44:22.898Z,6.21
2019-01-03T01:45:03.507Z,6.2
2019-01-03T01:45:43.816Z,6.08
2019-01-03T01:46:24.201Z,6.19
2019-01-03T01:47:04.620Z,6.27
2019-01-03T01:47:45.084Z,6.17
2019-01-03T01:48:25.841Z,6.17
2019-01-03T01:49:06.172Z,6.25
2019-01-03T01:49:46.532Z,6.28
2019-01-03T01:50:27.018Z,6.32
2019-01-03T01:51:07.471Z,6.24
2019-01-03T01:51:47.848Z,6.4
2019-01-03T01:52:28.328Z,6.48
2019-01-03T01:53:08.750Z,6.5
2019-01-03T01:53:49.072Z,6.64
2019-01-03T01:54:29.508Z,6.68
2019-01-03T01:55:09.966Z,6.64
2019-01-03T01:55:50.272Z,6.68
2019-01-03T01:56:30.867Z,6.82
2019-01-03T01:57:11.176Z,6.75
2019-01-03T01:57:51.626Z,6.72
2019-01-03T01:58:32.134Z,6.64
2019-01-03T01:59:12.594Z,6.68
2019-01-03T01:59:53.030Z,6.75
2019-01-03T02:00:33.529Z,6.75
2019-01-03T02:01:13.909Z,6.9
2019-01-03T02:01:56.117Z,6.89
2019-01-03T02:02:37.055Z,6.97
2019-01-03T02:03:17.880Z,6.96
2019-01-03T02:03:58.417Z,6.93
2019-01-03T02:04:39.014Z,6.97
2019-01-03T02:05:19.909Z,6.89
2019-01-03T02:06:00.515Z,6.93
2019-01-03T02:06:40.979Z,6.76
2019-01-03T02:07:21.882Z,6.87
2019-01-03T02:08:02.521Z,6.82
2019-01-03T02:08:43.222Z,6.64
2019-01-03T02:09:23.989Z,6.79
2019-01-03T02:10:04.756Z,6.86
2019-01-03T02:10:46.099Z,7.04
2019-01-03T02:11:26.698Z,7.08
2019-01-03T02:12:07.657Z,7.11
2019-01-03T02:12:48.089Z,7.21
2019-01-03T02:13:28.908Z,7.26
2019-01-03T02:14:09.425Z,7.3
2019-01-03T02:14:50.866Z,7.32
2019-01-03T02:15:31.341Z,7.33
2019-01-03T02:16:11.900Z,7.19
2019-01-03T02:16:52.488Z,7.19
2019-01-03T02:17:32.822Z,7
2019-01-03T02:18:13.308Z,6.93
2019-01-03T02:18:53.815Z,6.82
2019-01-03T02:19:34.259Z,6.79
2019-01-03T02:20:14.930Z,6.72
2019-01-03T02:20:55.350Z,6.55
2019-01-03T02:21:35.807Z,6.55
2019-01-03T02:22:16.230Z,6.55
2019-01-03T02:22:56.656Z,6.57
2019-01-03T02:23:37.246Z,6.6
2019-01-03T02:24:17.637Z,6.6
2019-01-03T02:24:58.058Z,6.71
2019-01-03T02:25:38.468Z,6.65
2019-01-03T02:26:19.000Z,6.71
2019-01-03T02:26:59.494Z,6.65
2019-01-03T02:27:39.980Z,6.65
2019-01-03T02:28:20.368Z,6.78
2019-01-03T02:29:00.835Z,6.79
2019-01-03T02:29:41.398Z,6.83
2019-01-03T02:30:21.796Z,6.89
2019-01-03T02:31:02.423Z,6.76
2019-01-03T02:31:42.791Z,6.82
2019-01-03T02:32:23.370Z,6.81
2019-01-03T02:33:04.036Z,6.73
2019-01-03T02:33:44.752Z,6.71
2019-01-03T02:34:26.542Z,6.9
2019-01-03T02:35:06.871Z,6.93
2019-01-03T02:35:47.835Z,7.12
2019-01-03T02:36:28.504Z,7.16
2019-01-03T02:37:10.051Z,7.3
2019-01-03T02:37:50.967Z,7.3
2019-01-03T02:38:31.771Z,7.39
2019-01-03T02:39:13.614Z,7.48
2019-01-03T02:39:55.036Z,7.48
2019-01-03T02:40:35.478Z,7.58
2019-01-03T02:41:16.114Z,7.48
2019-01-03T02:41:56.485Z,7.45
2019-01-03T02:42:37.119Z,7.39
2019-01-03T02:43:17.603Z,7.33
2019-01-03T02:43:58.051Z,7.27
2019-01-03T02:44:38.473Z,7.18
2019-01-03T02:45:18.840Z,7.18
2019-01-03T02:45:59.205Z,7.12
2019-01-03T02:46:39.680Z,7.16
2019-01-03T02:47:20.160Z,7.11
2019-01-03T02:48:00.446Z,7.11
2019-01-03T02:48:41.001Z,7.04
2019-01-03T02:49:21.467Z,6.96
2019-01-03T02:50:02.146Z,7.01
2019-01-03T02:50:42.643Z,6.97
2019-01-03T02:51:23.094Z,6.97
2019-01-03T02:52:03.471Z,6.94
2019-01-03T02:52:43.976Z,6.97
2019-01-03T02:53:24.436Z,6.96
2019-01-03T02:54:04.834Z,6.99
2019-01-03T02:54:45.444Z,6.91
2019-01-03T02:55:25.906Z,6.89
2019-01-03T02:56:06.298Z,6.93
2019-01-03T02:56:46.753Z,6.93
2019-01-03T02:57:27.145Z,6.83
2019-01-03T02:58:07.654Z,6.83
2019-01-03T02:58:48.067Z,6.89
2019-01-03T02:59:28.505Z,6.94
2019-01-03T03:00:08.921Z,6.93
2019-01-03T03:00:49.342Z,6.91
2019-01-03T03:01:29.734Z,6.99
2019-01-03T03:02:10.279Z,7.09
2019-01-03T03:02:50.730Z,7.16
2019-01-03T03:03:31.081Z,7.18
2019-01-03T03:04:11.411Z,7.27
2019-01-03T03:04:52.026Z,7.19
2019-01-03T03:05:32.446Z,7.32
2019-01-03T03:06:12.882Z,7.37
2019-01-03T03:06:53.259Z,7.51
2019-01-03T03:07:33.656Z,7.45
2019-01-03T03:08:14.037Z,7.57
2019-01-03T03:08:54.459Z,7.47
2019-01-03T03:09:34.896Z,7.62
2019-01-03T03:10:15.251Z,7.42
2019-01-03T03:10:55.645Z,7.58
2019-01-03T03:11:36.232Z,7.47
2019-01-03T03:12:16.588Z,7.58
2019-01-03T03:12:57.070Z,7.58
2019-01-03T03:13:37.429Z,7.54
2019-01-03T03:14:17.794Z,7.63
2019-01-03T03:14:58.238Z,7.63
2019-01-03T03:15:38.637Z,7.69
2019-01-03T03:16:18.982Z,7.73
2019-01-03T03:16:59.371Z,7.74
2019-01-03T03:17:39.799Z,7.76
2019-01-03T03:18:20.303Z,7.81
2019-01-03T03:19:00.651Z,7.82
2019-01-03T03:19:41.035Z,7.82
2019-01-03T03:20:21.472Z,7.84
2019-01-03T03:21:01.855Z,7.96
2019-01-03T03:21:42.268Z,8
2019-01-03T03:22:22.717Z,8.06
2019-01-03T03:23:03.263Z,8.18
2019-01-03T03:23:43.595Z,8.17
2019-01-03T03:24:23.979Z,8.2
2019-01-03T03:25:04.372Z,8.2
2019-01-03T03:25:44.848Z,8.22
2019-01-03T03:26:25.283Z,8.18
2019-01-03T03:27:05.738Z,8.27
2019-01-03T03:27:45.963Z,8.25
2019-01-03T03:28:26.423Z,8.34
2019-01-03T03:29:06.894Z,8.2
2019-01-03T03:29:47.283Z,8.32
2019-01-03T03:30:27.681Z,8.29
2019-01-03T03:31:08.250Z,8.28
2019-01-03T03:31:48.574Z,8.2
2019-01-03T03:32:29.120Z,8.09
2019-01-03T03:33:09.450Z,8.1
2019-01-03T03:33:49.950Z,7.99
2019-01-03T03:34:30.382Z,8.09
2019-01-03T03:35:10.736Z,8.12
2019-01-03T03:35:51.205Z,8.07
2019-01-03T03:36:31.575Z,8.09
2019-01-03T03:37:11.896Z,8.06
2019-01-03T03:37:52.329Z,8.13
2019-01-03T03:38:32.685Z,8.17
2019-01-03T03:39:13.134Z,8.07
2019-01-03T03:39:53.534Z,8.09
2019-01-03T03:40:33.929Z,8.13
2019-01-03T03:41:14.281Z,8.2
2019-01-03T03:41:54.692Z,8.14
2019-01-03T03:42:35.181Z,8.2
2019-01-03T03:43:15.579Z,8.18
2019-01-03T03:43:55.945Z,8.1
2019-01-03T03:44:36.375Z,8.18
2019-01-03T03:45:16.696Z,8.2
2019-01-03T03:45:57.074Z,8.2
2019-01-03T03:46:37.534Z,8.13
2019-01-03T03:47:17.846Z,8.22
2019-01-03T03:47:58.277Z,8.13
2019-01-03T03:48:38.722Z,8.25
2019-01-03T03:49:19.093Z,8.36
2019-01-03T03:49:59.520Z,8.27
2019-01-03T03:50:40.139Z,8.32
2019-01-03T03:51:20.443Z,8.32
2019-01-03T03:52:00.844Z,8.34
2019-01-03T03:52:41.314Z,8.42
2019-01-03T03:53:21.675Z,8.39
2019-01-03T03:54:02.042Z,8.4
2019-01-03T03:54:42.427Z,8.5
2019-01-03T03:55:22.940Z,8.46
2019-01-03T03:56:03.256Z,8.52
2019-01-03T03:56:43.742Z,8.47
2019-01-03T03:57:23.974Z,8.5
2019-01-03T03:58:04.390Z,8.42
2019-01-03T03:58:44.765Z,8.43
2019-01-03T03:59:25.197Z,8.4
2019-01-03T04:00:05.654Z,8.36
2019-01-03T04:00:46.078Z,8.47
2019-01-03T04:01:26.476Z,8.55
2019-01-03T04:02:06.816Z,8.5
2019-01-03T04:02:47.282Z,8.49
2019-01-03T04:03:27.673Z,8.54
2019-01-03T04:04:08.185Z,8.52
2019-01-03T04:04:48.478Z,8.57
2019-01-03T04:05:29.018Z,8.47
2019-01-03T04:06:09.248Z,8.58
2019-01-03T04:06:49.803Z,8.45
2019-01-03T04:07:30.146Z,8.47
2019-01-03T04:08:10.637Z,8.46
2019-01-03T04:08:51.037Z,8.42
2019-01-03T04:09:31.510Z,8.43
2019-01-03T04:10:11.843Z,8.4
2019-01-03T04:10:52.203Z,8.25
2019-01-03T04:11:32.644Z,8.34
2019-01-03T04:12:12.957Z,8.36
2019-01-03T04:12:53.456Z,8.31
2019-01-03T04:13:33.872Z,8.34
2019-01-03T04:14:14.252Z,8.31
2019-01-03T04:14:54.614Z,8.29
2019-01-03T04:15:35.005Z,8.25
2019-01-03T04:16:15.464Z,8.29
2019-01-03T04:16:55.933Z,8.24
2019-01-03T04:17:36.311Z,8.39
2019-01-03T04:18:16.671Z,8.29
2019-01-03T04:18:57.058Z,8.37
2019-01-03T04:19:37.519Z,8.34
2019-01-03T04:20:17.946Z,8.28
2019-01-03T04:20:58.385Z,8.34
2019-01-03T04:21:38.663Z,8.28
2019-01-03T04:22:19.088Z,8.36
2019-01-03T04:22:59.434Z,8.32
2019-01-03T04:23:39.835Z,8.4
2019-01-03T04:24:20.292Z,8.4
2019-01-03T04:25:00.621Z,8.39
2019-01-03T04:25:41.027Z,8.36
2019-01-03T04:26:21.413Z,8.37
2019-01-03T04:27:01.774Z,8.37
2019-01-03T05:06:19.417Z,7.71
2019-01-03T05:06:59.573Z,7.79
2019-01-03T05:07:39.985Z,7.73
2019-01-03T05:08:20.385Z,7.66
2019-01-03T05:09:00.797Z,7.58
2019-01-03T05:09:41.144Z,7.58
2019-01-03T05:10:21.546Z,7.54
2019-01-03T05:11:01.983Z,7.66
2019-01-03T05:11:42.404Z,7.6
2019-01-03T05:12:22.740Z,7.58
2019-01-03T05:13:03.118Z,7.66
2019-01-03T05:13:43.537Z,7.74
2019-01-03T05:14:23.927Z,7.74
2019-01-03T05:15:04.327Z,7.73
2019-01-03T05:15:44.712Z,7.79
2019-01-03T05:16:25.152Z,7.79
2019-01-03T05:17:05.489Z,7.79
2019-01-03T05:17:45.923Z,7.76
2019-01-03T05:18:26.282Z,7.81
2019-01-03T05:19:06.645Z,7.95
2019-01-03T05:19:47.055Z,7.92
2019-01-03T05:20:27.489Z,7.95
2019-01-03T05:21:07.840Z,7.96
2019-01-03T05:21:48.277Z,7.88
2019-01-03T05:22:28.625Z,7.89
2019-01-03T05:23:09.028Z,7.79
2019-01-03T05:23:49.426Z,7.76
2019-01-03T05:24:29.861Z,7.7
2019-01-03T05:25:10.265Z,7.73
2019-01-03T05:25:50.681Z,7.73
2019-01-03T05:26:31.077Z,7.88
2019-01-03T05:27:11.455Z,7.82
2019-01-03T05:27:51.914Z,7.95
2019-01-03T05:28:32.264Z,7.94
2019-01-03T05:29:12.693Z,7.95
2019-01-03T05:29:53.070Z,7.94
2019-01-03T05:30:33.517Z,7.92
2019-01-03T05:31:13.845Z,7.96
2019-01-03T05:31:54.246Z,8.03
2019-01-03T05:32:34.651Z,8.04
2019-01-03T05:33:15.078Z,8
2019-01-03T05:33:55.463Z,7.99
2019-01-03T05:34:35.847Z,7.99
2019-01-03T05:35:16.284Z,7.96
2019-01-03T05:35:56.642Z,7.94
2019-01-03T05:36:37.083Z,7.89
2019-01-03T05:37:17.457Z,7.96
2019-01-03T05:37:57.853Z,7.94
2019-01-03T05:38:38.266Z,7.95
2019-01-03T05:39:18.640Z,8.1
2019-01-03T05:39:59.023Z,8.1
2019-01-03T05:40:39.418Z,8.1
2019-01-03T05:41:19.847Z,8.07
2019-01-03T05:42:00.242Z,8.03
2019-01-03T05:42:40.608Z,7.94
2019-01-03T05:43:21.018Z,8
2019-01-03T05:44:01.426Z,7.86
2019-01-03T05:44:41.831Z,7.85
2019-01-03T05:45:22.225Z,7.79
2019-01-03T05:46:02.605Z,7.91
2019-01-03T05:46:42.988Z,7.96
2019-01-03T05:47:23.406Z,7.92
2019-01-03T05:48:03.835Z,7.91
2019-01-03T05:48:44.248Z,7.95
2019-01-03T05:49:24.711Z,7.94
2019-01-03T05:50:05.043Z,7.95
2019-01-03T05:50:45.463Z,7.88
2019-01-03T05:51:25.893Z,7.94
2019-01-03T05:52:06.266Z,7.96
2019-01-03T05:52:46.664Z,7.77
2019-01-03T05:53:27.043Z,7.82
2019-01-03T05:54:07.451Z,7.82
2019-01-03T05:54:47.814Z,7.73
2019-01-03T05:55:28.219Z,7.84
2019-01-03T05:56:08.612Z,7.81
2019-01-03T05:56:49.013Z,7.88
2019-01-03T05:57:29.436Z,7.85
2019-01-03T05:58:09.811Z,7.76
2019-01-03T06:03:50.750Z,8.22
2019-01-03T06:04:43.571Z,8.22
2019-01-03T06:05:36.300Z,8.24
2019-01-03T06:06:28.733Z,8.21
2019-01-03T06:07:21.360Z,8.24
2019-01-03T06:08:13.960Z,8.29
2019-01-03T06:09:06.449Z,8.25
2019-01-03T06:09:59.548Z,8.27
2019-01-03T06:10:51.728Z,8.27
2019-01-03T06:11:43.667Z,8.21
2019-01-03T06:12:35.865Z,8.14
2019-01-03T06:13:27.687Z,8.31
2019-01-03T06:14:20.394Z,8.37
2019-01-03T06:15:13.129Z,8.22
2019-01-03T06:16:05.770Z,8.36
2019-01-03T06:16:57.983Z,8.28
2019-01-03T06:17:50.255Z,8.31
2019-01-03T06:18:42.225Z,8.32
2019-01-03T06:19:34.710Z,8.22
2019-01-03T06:20:27.765Z,8.22
2019-01-03T06:21:19.963Z,8.14
2019-01-03T06:22:12.561Z,8.22
2019-01-03T06:23:04.630Z,8.18
2019-01-03T06:23:57.216Z,8.22
2019-01-03T06:24:49.763Z,8.31
2019-01-03T06:25:42.764Z,8.4
2019-01-03T06:26:35.190Z,8.4
2019-01-03T06:27:27.825Z,8.42
2019-01-03T06:28:20.333Z,8.46
2019-01-03T06:29:12.862Z,8.47
2019-01-03T06:30:05.118Z,8.54
2019-01-03T06:30:57.618Z,8.57
2019-01-03T06:31:50.907Z,8.52
2019-01-03T06:32:43.146Z,8.57
2019-01-03T06:33:35.650Z,8.58
2019-01-03T06:34:27.820Z,8.61
2019-01-03T06:35:20.725Z,8.58
2019-01-03T06:36:13.090Z,8.5
2019-01-03T06:37:05.257Z,8.47
2019-01-03T06:37:58.018Z,8.43
2019-01-03T06:38:50.469Z,8.4
2019-01-03T06:39:43.134Z,8.25
2019-01-03T06:40:36.628Z,8.14
2019-01-03T06:41:29.079Z,8.06
2019-01-03T06:42:24.515Z,8.07
2019-01-03T06:43:18.333Z,7.96
2019-01-03T06:44:15.201Z,7.95
2019-01-03T06:45:06.594Z,8.09
2019-01-03T06:45:59.179Z,8
2019-01-03T06:46:52.638Z,7.89
2019-01-03T06:47:45.229Z,8.07
2019-01-03T06:48:37.678Z,8.07
2019-01-03T06:49:29.612Z,8.17
2019-01-03T06:54:15.313Z,8.27
2019-01-03T06:55:07.648Z,8.14
2019-01-03T06:56:01.177Z,8.2
2019-01-03T06:56:54.693Z,8.2
2019-01-03T06:57:52.755Z,8.18
2019-01-03T06:58:49.061Z,8.22
2019-01-03T06:59:44.076Z,8.2
2019-01-03T07:00:41.822Z,8.1
2019-01-03T07:01:39.586Z,8.09
2019-01-03T07:05:33.198Z,8.07
2019-01-03T07:06:33.326Z,7.96
2019-01-03T07:07:28.403Z,7.82
2019-01-03T07:08:28.840Z,7.82
2019-01-03T07:09:24.321Z,7.82
2019-01-03T07:10:17.091Z,7.86
2019-01-03T07:11:11.006Z,7.82
2019-01-03T07:12:08.534Z,7.92
2019-01-03T07:13:04.251Z,8.02
2019-01-03T07:13:58.874Z,7.89
2019-01-03T07:14:51.837Z,7.95
2019-01-03T07:15:45.287Z,7.95
2019-01-03T07:16:39.707Z,7.95
2019-01-03T07:17:34.243Z,7.82
2019-01-03T07:18:31.542Z,7.86
2019-01-03T07:19:29.187Z,7.81
2019-01-03T07:20:23.225Z,7.95
2019-01-03T07:21:18.558Z,7.94
2019-01-03T07:22:13.092Z,8.04
2019-01-03T07:23:09.619Z,8.09
2019-01-03T07:24:05.580Z,8.04
2019-01-03T07:25:04.124Z,8.17
2019-01-03T07:25:58.552Z,8.17
2019-01-03T07:26:52.679Z,8.06
2019-01-03T07:27:47.403Z,8.06
2019-01-03T07:28:46.798Z,8.03
2019-01-03T07:29:47.258Z,7.92
2019-01-03T07:30:50.842Z,7.96
2019-01-03T07:36:14.918Z,7.76
2019-01-03T07:36:59.375Z,7.77
2019-01-03T07:37:40.421Z,7.85
2019-01-03T07:38:20.841Z,7.82
2019-01-03T07:39:01.316Z,7.82
2019-01-03T07:39:42.707Z,7.85
2019-01-03T07:40:24.970Z,7.82
2019-01-03T07:41:05.415Z,7.89
2019-01-03T07:41:45.931Z,7.82
2019-01-03T07:42:26.732Z,7.92
2019-01-03T07:43:11.621Z,7.82
2019-01-03T07:43:53.474Z,7.82
2019-01-03T07:44:34.291Z,7.76
2019-01-03T07:45:15.041Z,7.74
2019-01-03T07:45:57.036Z,7.81
2019-01-03T07:46:39.166Z,7.76
2019-01-03T07:47:20.792Z,7.74
2019-01-03T07:48:00.776Z,7.7
2019-01-03T07:48:41.627Z,7.69
2019-01-03T07:49:22.912Z,7.77
2019-01-03T07:50:08.554Z,7.79
2019-01-03T07:50:48.096Z,7.94
2019-01-03T07:51:28.416Z,7.96
2019-01-03T07:52:09.293Z,7.89
2019-01-03T07:52:49.958Z,7.95
2019-01-03T07:53:30.447Z,8.13
2019-01-03T07:54:11.265Z,8.18
2019-01-03T07:54:51.726Z,8.21
2019-01-03T07:55:32.972Z,8.21
2019-01-03T07:56:13.873Z,8.29
2019-01-03T07:56:54.008Z,8.32
2019-01-03T07:57:35.049Z,8.36
2019-01-03T07:58:15.398Z,8.31
2019-01-03T07:58:56.083Z,8.31
2019-01-03T07:59:37.951Z,8.36
2019-01-03T08:00:21.847Z,8.42
2019-01-03T08:01:03.044Z,8.28
2019-01-03T08:01:43.409Z,8.31
2019-01-03T08:02:24.060Z,8.31
2019-01-03T08:03:04.750Z,8.32
2019-01-03T08:03:45.830Z,8.31
2019-01-03T08:04:26.794Z,8.37
2019-01-03T08:05:06.792Z,8.28
2019-01-03T08:05:47.665Z,8.27
2019-01-03T08:06:28.663Z,8.24
2019-01-03T08:07:08.988Z,8.29
2019-01-03T08:07:49.653Z,8.29
2019-01-03T08:08:31.423Z,8.34
2019-01-03T08:09:11.471Z,8.24
2019-01-03T08:09:51.660Z,8.14
2019-01-03T08:10:32.133Z,8.17
2019-01-03T08:11:12.570Z,8.13
2019-01-03T08:11:52.961Z,8.13
2019-01-03T08:12:40.892Z,8.02
2019-01-03T08:13:21.436Z,8.02
2019-01-03T08:14:02.935Z,7.96
2019-01-03T08:14:43.463Z,7.94
2019-01-03T08:15:24.724Z,7.99
2019-01-03T08:16:05.119Z,7.95
2019-01-03T08:16:45.532Z,8
2019-01-03T08:17:25.946Z,8.06
2019-01-03T08:18:06.571Z,8.2
2019-01-03T08:18:48.519Z,8.2
2019-01-03T08:19:28.879Z,8.14
2019-01-03T08:20:09.328Z,8.27
2019-01-03T08:20:49.743Z,8.14
2019-01-03T08:21:30.310Z,8.24
2019-01-03T08:22:11.732Z,8.24
2019-01-03T08:24:32.095Z,8.36
2019-01-03T08:25:41.428Z,8.45
2019-01-03T08:27:35.486Z,8.5
2019-01-03T08:28:39.015Z,8.47
2019-01-03T08:29:34.931Z,8.37
2019-01-03T08:30:27.048Z,8.37
2019-01-03T08:31:20.010Z,8.39
2019-01-03T08:32:16.611Z,8.4
2019-01-03T08:33:10.248Z,8.31
2019-01-03T08:34:03.659Z,8.31
2019-01-03T08:34:58.422Z,8.37
2019-01-03T08:36:03.579Z,8.31
2019-01-03T08:37:40.100Z,8.39
2019-01-03T08:38:35.928Z,8.37
2019-01-03T08:39:31.354Z,8.37
2019-01-03T08:40:28.792Z,8.42
2019-01-03T08:41:24.485Z,8.43
2019-01-03T08:42:21.586Z,8.4
2019-01-03T08:43:19.019Z,8.36
2019-01-03T08:44:13.891Z,8.32
2019-01-03T08:45:07.183Z,8.32
2019-01-03T08:46:04.147Z,8.27
2019-01-03T08:47:00.623Z,8.32
2019-01-03T08:47:55.406Z,8.32
2019-01-03T08:48:49.728Z,8.34
2019-01-03T08:49:42.226Z,8.34
2019-01-03T08:50:37.323Z,8.39
2019-01-03T08:51:37.235Z,8.49
2019-01-03T08:52:33.641Z,8.46
2019-01-03T08:53:27.182Z,8.52
2019-01-03T08:54:24.383Z,8.43
2019-01-03T08:55:20.236Z,8.5
2019-01-03T08:56:18.271Z,8.58
2019-01-03T08:57:14.401Z,8.54
2019-01-03T08:58:13.318Z,8.6
2019-01-03T08:59:09.375Z,8.54
2019-01-03T09:00:08.583Z,8.54
2019-01-03T09:06:19.861Z,8.6
2019-01-03T09:20:03.626Z,8.64
2019-01-03T09:21:07.529Z,8.6
2019-01-03T09:24:49.440Z,8.7
2019-01-03T09:25:29.892Z,8.76
2019-01-03T09:26:10.229Z,8.65
2019-01-03T09:26:50.622Z,8.75
2019-01-03T09:27:32.808Z,8.68
2019-01-03T09:28:13.269Z,8.61
2019-01-03T09:28:54.821Z,8.5
2019-01-03T09:29:35.102Z,8.6
2019-01-03T09:30:15.496Z,8.65
2019-01-03T09:30:55.907Z,8.71
2019-01-03T09:31:36.666Z,8.63
2019-01-03T09:32:17.113Z,8.68
2019-01-03T09:32:57.464Z,8.65
2019-01-03T09:33:37.931Z,8.73
2019-01-03T09:34:18.399Z,8.75
2019-01-03T09:35:16.390Z,8.71
2019-01-03T09:35:57.118Z,8.83
2019-01-03T09:36:37.456Z,8.8
2019-01-03T09:37:17.928Z,8.73
2019-01-03T09:38:01.671Z,8.82
2019-01-03T09:38:42.208Z,8.86
2019-01-03T09:39:22.520Z,8.8
2019-01-03T09:40:02.948Z,8.89
2019-01-03T09:40:43.424Z,8.93
2019-01-03T09:41:23.876Z,8.89
2019-01-03T09:42:04.225Z,9.03
2019-01-03T09:42:44.677Z,8.97
2019-01-03T09:43:25.048Z,8.91
2019-01-03T09:44:05.484Z,8.93
2019-01-03T09:44:47.877Z,8.98
2019-01-03T09:48:47.210Z,9.04
2019-01-03T09:49:47.365Z,9.03
2019-01-03T09:52:04.117Z,8.94
2019-01-03T09:52:44.264Z,9.1
2019-01-03T09:53:24.702Z,9.08
2019-01-03T09:54:07.662Z,9.13
2019-01-03T09:54:47.541Z,9.2
2019-01-03T09:55:28.085Z,9.2
2019-01-03T09:56:08.617Z,9.16
2019-01-03T09:56:49.028Z,9.22
2019-01-03T09:57:30.163Z,9.3
2019-01-03T09:58:10.153Z,9.27
2019-01-03T09:58:52.341Z,9.37
2019-01-03T09:59:32.791Z,9.37
2019-01-03T10:00:13.183Z,9.44
2019-01-03T10:00:53.791Z,9.41
2019-01-03T10:01:34.011Z,9.4
2019-01-03T10:02:14.450Z,9.44
2019-01-03T10:02:54.834Z,9.45
2019-01-03T10:03:35.355Z,9.49
2019-01-03T10:04:15.642Z,9.44
2019-01-03T10:04:58.001Z,9.44
2019-01-03T10:05:38.260Z,9.53
2019-01-03T10:07:20.148Z,9.49
2019-01-03T10:08:19.599Z,9.37
2019-01-03T10:09:33.404Z,9.37
2019-01-03T10:10:38.175Z,9.48
2019-01-03T10:11:37.916Z,9.56
2019-01-03T10:12:38.285Z,9.58
2019-01-03T10:13:38.326Z,9.6
2019-01-03T10:14:42.417Z,9.58
2019-01-03T10:16:00.744Z,9.5
2019-01-03T10:17:06.010Z,9.53
2019-01-03T10:20:48.426Z,9.45
2019-01-03T10:21:54.964Z,9.52
2019-01-03T10:22:53.454Z,9.49
2019-01-03T10:24:57.431Z,9.53
2019-01-03T10:26:16.971Z,9.6
2019-01-03T10:27:24.277Z,9.75
2019-01-03T10:28:22.910Z,9.68
2019-01-03T11:07:11.538Z,7.74
2019-01-03T11:09:17.283Z,7.58
2019-01-03T11:10:24.551Z,7.58
2019-01-03T11:19:03.652Z,7.62
2019-01-03T11:19:46.414Z,7.63
2019-01-03T11:20:26.732Z,7.69
2019-01-03T11:21:07.149Z,7.73
2019-01-03T11:21:47.635Z,7.81
2019-01-03T11:22:28.021Z,7.79
2019-01-03T11:23:08.554Z,7.96
2019-01-03T11:23:48.978Z,8.03
2019-01-03T11:24:29.401Z,7.99
2019-01-03T11:25:09.774Z,8.18
2019-01-03T11:25:50.144Z,8.25
2019-01-03T11:26:30.575Z,8.37
2019-01-03T11:27:12.944Z,8.47
2019-01-03T11:27:53.435Z,8.54
2019-01-03T11:28:34.771Z,8.58
2019-01-03T11:29:16.177Z,8.76
2019-01-03T11:29:56.569Z,8.8
2019-01-03T11:30:37.084Z,8.86
2019-01-03T11:31:17.522Z,8.98
2019-01-03T11:31:57.950Z,8.97
2019-01-03T11:32:41.467Z,9.03
2019-01-03T11:33:21.365Z,9.15
2019-01-03T11:34:01.098Z,9.19
2019-01-03T11:34:41.569Z,9.22
2019-01-03T11:35:23.845Z,9.24
2019-01-03T11:36:04.284Z,9.27
2019-01-03T11:36:44.656Z,9.3
2019-01-03T11:37:27.098Z,9.32
2019-01-03T11:38:07.808Z,9.27
2019-01-03T11:38:48.388Z,9.35
2019-01-03T11:39:28.730Z,9.49
2019-01-03T11:40:09.270Z,9.42
2019-01-03T11:40:49.755Z,9.55
2019-01-03T11:41:30.143Z,9.52
2019-01-03T11:42:12.404Z,9.52
2019-01-03T11:42:53.182Z,9.55
2019-01-03T11:43:33.569Z,9.68
2019-01-03T11:44:13.948Z,9.59
2019-01-03T11:44:55.302Z,9.53
2019-01-03T11:45:35.758Z,9.59
2019-01-03T11:46:17.935Z,9.58
2019-01-03T11:47:00.395Z,9.45
2019-01-03T11:47:41.637Z,9.53
2019-01-03T11:48:22.141Z,9.59
2019-01-03T11:49:04.728Z,9.5
2019-01-03T11:49:46.980Z,9.52
2019-01-03T11:50:32.099Z,9.65
2019-01-03T11:51:13.758Z,9.5
2019-01-03T11:51:54.823Z,9.65
2019-01-03T11:52:39.646Z,9.59
2019-01-03T11:53:21.973Z,9.59
2019-01-03T11:54:08.021Z,9.59
2019-01-03T11:54:48.463Z,9.59
2019-01-03T11:55:28.900Z,9.62
2019-01-03T11:56:09.233Z,9.56
2019-01-03T11:56:49.703Z,9.55
2019-01-03T11:57:30.132Z,9.48
2019-01-03T11:58:11.691Z,9.48
2019-01-03T11:58:52.099Z,9.52
2019-01-03T11:59:32.500Z,9.45
2019-01-03T12:00:14.943Z,9.4
2019-01-03T12:00:55.336Z,9.44
2019-01-03T12:01:35.983Z,9.48